createdAt,value
2023-04-23T00:02:47.352Z,57.02
2023-04-23T00:07:56.200Z,56.89
2023-04-23T00:13:04.675Z,56.85
2023-04-23T00:18:12.168Z,56.64
2023-04-23T00:23:19.520Z,56.55
2023-04-23T00:28:27.446Z,56.80
2023-04-23T00:33:35.233Z,57.04
2023-04-23T00:38:42.751Z,56.94
2023-04-23T00:43:53.363Z,57.09
2023-04-23T00:49:01.884Z,57.02
2023-04-23T00:54:10.384Z,57.22
2023-04-23T00:59:18.417Z,57.21
2023-04-23T01:04:30.004Z,57.50
2023-04-23T01:09:37.509Z,57.71
2023-04-23T01:14:45.707Z,57.80
2023-04-23T01:19:53.344Z,57.92
2023-04-23T01:25:01.471Z,58.00
2023-04-23T01:30:11.364Z,58.18
2023-04-23T01:35:19.062Z,58.32
2023-04-23T01:40:26.758Z,58.39
2023-04-23T01:45:35.441Z,58.66
2023-04-23T01:50:44.500Z,58.70
2023-04-23T01:55:53.456Z,59.00
2023-04-23T02:01:01.050Z,58.85
2023-04-23T02:06:09.372Z,58.87
2023-04-23T02:11:16.855Z,58.76
2023-04-23T02:16:25.156Z,58.64
2023-04-23T02:21:33.130Z,58.74
2023-04-23T02:26:40.952Z,58.84
2023-04-23T02:31:48.408Z,58.94
2023-04-23T02:36:56.491Z,58.93
2023-04-23T02:42:04.014Z,58.86
2023-04-23T02:47:11.830Z,58.86
2023-04-23T02:52:19.799Z,58.99
2023-04-23T02:57:27.645Z,58.94
2023-04-23T03:02:35.423Z,58.90
2023-04-23T03:07:43.924Z,59.06
2023-04-23T03:12:51.799Z,59.09
2023-04-23T03:17:59.881Z,59.12
2023-04-23T03:23:08.038Z,59.12
2023-04-23T03:28:16.422Z,59.37
2023-04-23T03:33:25.018Z,59.35
2023-04-23T03:38:32.849Z,59.53
2023-04-23T03:43:41.169Z,59.80
2023-04-23T03:49:12.134Z,60.07
2023-04-23T03:54:20.114Z,60.32
2023-04-23T03:59:43.462Z,60.46
2023-04-23T04:04:52.308Z,60.37
2023-04-23T04:10:00.216Z,60.59
2023-04-23T04:15:09.170Z,60.92
2023-04-23T04:20:17.272Z,61.02
2023-04-23T04:25:25.083Z,61.01
2023-04-23T04:30:32.405Z,61.16
2023-04-23T04:35:39.836Z,61.27
2023-04-23T04:40:49.345Z,61.58
2023-04-23T04:45:59.790Z,61.74
2023-04-23T04:51:08.495Z,61.59
2023-04-23T04:56:15.979Z,61.45
2023-04-23T05:01:25.062Z,61.54
2023-04-23T05:06:33.448Z,61.31
2023-04-23T05:11:41.867Z,61.27
2023-04-23T05:16:50.054Z,61.28
2023-04-23T05:21:59.113Z,61.07
2023-04-23T05:27:07.036Z,60.77
2023-04-23T05:32:15.257Z,60.58
2023-04-23T05:37:23.074Z,60.18
2023-04-23T05:42:30.876Z,59.87
2023-04-23T05:47:38.466Z,59.32
2023-04-23T05:52:46.456Z,59.36
2023-04-23T05:57:54.031Z,58.82
2023-04-23T06:03:01.659Z,58.62
2023-04-23T06:08:09.976Z,57.91
2023-04-23T06:13:18.408Z,57.32
2023-04-23T06:18:28.013Z,57.01
2023-04-23T06:23:37.357Z,56.58
2023-04-23T06:28:45.538Z,55.91
2023-04-23T06:34:05.844Z,55.41
2023-04-23T06:39:13.597Z,55.12
2023-04-23T06:44:21.393Z,54.30
2023-04-23T06:49:37.895Z,53.62
2023-04-23T06:54:45.890Z,52.71
2023-04-23T06:59:53.357Z,51.47
2023-04-23T07:05:02.215Z,50.37
2023-04-23T07:10:13.569Z,49.37
2023-04-23T07:15:22.901Z,47.91
2023-04-23T07:20:30.740Z,46.27
2023-04-23T07:25:39.891Z,44.66
2023-04-23T07:30:47.144Z,43.19
2023-04-23T07:35:54.524Z,42.60
2023-04-23T07:41:01.870Z,41.09
2023-04-23T07:46:10.184Z,40.94
2023-04-23T07:51:17.893Z,39.88
2023-04-23T07:56:26.462Z,41.05
2023-04-23T08:01:34.155Z,40.10
2023-04-23T08:06:42.212Z,39.59
2023-04-23T08:11:49.850Z,39.96
2023-04-23T08:16:57.250Z,39.39
2023-04-23T08:22:04.884Z,39.97
2023-04-23T08:27:12.438Z,38.28
2023-04-23T08:32:19.755Z,38.22
2023-04-23T08:37:31.326Z,38.24
2023-04-23T08:42:44.544Z,36.65
2023-04-23T08:47:52.493Z,35.85
2023-04-23T08:53:00.377Z,36.09
2023-04-23T08:58:08.728Z,36.81
2023-04-23T09:03:17.131Z,36.18
2023-04-23T09:08:25.438Z,36.66
2023-04-23T09:13:33.995Z,36.74
2023-04-23T09:18:41.604Z,35.39
2023-04-23T09:23:53.808Z,34.18
2023-04-23T09:29:01.093Z,34.48
2023-04-23T09:34:09.247Z,34.80
2023-04-23T09:39:20.720Z,33.45
2023-04-23T09:44:30.001Z,33.94
2023-04-23T09:49:46.894Z,34.94
2023-04-23T09:54:54.585Z,34.64
2023-04-23T10:00:15.344Z,34.42
2023-04-23T10:05:29.390Z,33.81
2023-04-23T10:10:57.486Z,34.92
2023-04-23T10:16:22.251Z,34.20
2023-04-23T10:21:42.964Z,35.01
2023-04-23T10:27:03.207Z,35.02
2023-04-23T10:32:10.728Z,34.39
2023-04-23T10:37:19.851Z,34.33
2023-04-23T10:42:28.340Z,34.36
2023-04-23T10:47:35.898Z,34.34
2023-04-23T10:52:47.288Z,34.08
2023-04-23T10:58:04.370Z,33.96
2023-04-23T11:03:31.809Z,33.96
2023-04-23T11:08:53.476Z,33.14
2023-04-23T11:14:14.621Z,33.24
2023-04-23T11:19:22.420Z,33.41
2023-04-23T11:24:31.500Z,32.34
2023-04-23T11:29:41.499Z,33.48
2023-04-23T11:34:51.094Z,33.43
2023-04-23T11:39:59.556Z,32.82
2023-04-23T11:45:08.059Z,32.93
2023-04-23T11:50:21.518Z,32.84
2023-04-23T11:55:30.838Z,32.62
2023-04-23T12:00:38.166Z,31.08
2023-04-23T12:05:48.445Z,31.54
2023-04-23T12:10:57.115Z,31.80
2023-04-23T12:16:05.831Z,30.04
2023-04-23T12:21:14.133Z,30.41
2023-04-23T12:26:25.359Z,30.92
2023-04-23T12:31:33.662Z,30.88
2023-04-23T12:36:46.166Z,31.04
2023-04-23T12:41:54.828Z,31.39
2023-04-23T12:47:05.256Z,31.65
2023-04-23T12:52:14.146Z,31.69
2023-04-23T12:57:23.618Z,31.25
2023-04-23T13:02:31.996Z,30.99
2023-04-23T13:07:39.860Z,30.97
2023-04-23T13:12:47.537Z,29.76
2023-04-23T13:17:55.259Z,28.51
2023-04-23T13:23:03.533Z,28.42
2023-04-23T13:28:11.201Z,29.50
2023-04-23T13:33:19.635Z,30.06
2023-04-23T13:38:27.949Z,29.27
2023-04-23T13:43:35.807Z,29.27
2023-04-23T13:48:43.393Z,30.21
2023-04-23T13:53:51.156Z,30.39
2023-04-23T13:59:18.239Z,30.16
2023-04-23T14:04:27.736Z,29.38
2023-04-23T14:09:35.511Z,29.93
2023-04-23T14:14:43.478Z,29.71
2023-04-23T14:19:50.947Z,30.09
2023-04-23T14:25:06.887Z,30.02
2023-04-23T14:30:18.944Z,29.87
2023-04-23T14:35:36.035Z,29.75
2023-04-23T14:40:49.848Z,29.47
2023-04-23T14:45:57.190Z,29.23
2023-04-23T14:51:05.049Z,28.75
2023-04-23T14:56:12.706Z,28.34
2023-04-23T15:01:20.419Z,27.68
2023-04-23T15:06:28.404Z,27.85
2023-04-23T15:11:39.291Z,27.46
2023-04-23T15:16:49.276Z,26.72
2023-04-23T15:21:57.499Z,26.84
2023-04-23T15:27:05.070Z,27.68
2023-04-23T15:32:13.077Z,26.70
2023-04-23T15:37:21.554Z,27.93
2023-04-23T15:42:29.352Z,27.00
2023-04-23T15:47:40.717Z,26.81
2023-04-23T15:52:49.870Z,27.47
2023-04-23T15:57:59.445Z,27.79
2023-04-23T16:03:08.313Z,28.17
2023-04-23T16:08:17.306Z,28.32
2023-04-23T16:13:27.311Z,28.25
2023-04-23T16:18:34.886Z,28.54
2023-04-23T16:23:42.407Z,28.53
2023-04-23T16:28:52.415Z,28.54
2023-04-23T16:34:13.097Z,27.88
2023-04-23T16:39:21.016Z,28.54
2023-04-23T16:44:29.342Z,28.75
2023-04-23T16:49:36.964Z,28.97
2023-04-23T16:54:46.054Z,29.20
2023-04-23T16:59:54.490Z,29.29
2023-04-23T17:05:02.418Z,29.33
2023-04-23T17:10:12.788Z,29.63
2023-04-23T17:15:21.033Z,29.91
2023-04-23T17:20:29.441Z,30.26
2023-04-23T17:25:37.038Z,30.46
2023-04-23T17:30:45.818Z,31.10
2023-04-23T17:35:55.719Z,31.36
2023-04-23T17:41:03.824Z,31.73
2023-04-23T17:46:11.145Z,32.09
2023-04-23T17:51:18.644Z,32.48
2023-04-23T17:56:27.454Z,32.78
2023-04-23T18:01:35.047Z,33.20
2023-04-23T18:06:42.636Z,33.63
2023-04-23T18:11:50.002Z,33.91
2023-04-23T18:16:58.062Z,34.05
2023-04-23T18:22:05.629Z,34.06
2023-04-23T18:27:12.935Z,34.08
2023-04-23T18:32:31.250Z,34.10
2023-04-23T18:37:49.293Z,33.90
2023-04-23T18:42:56.847Z,34.08
2023-04-23T18:48:37.760Z,34.19
2023-04-23T18:53:45.132Z,34.27
2023-04-23T18:58:52.558Z,34.66
2023-04-23T19:04:00.459Z,34.76
2023-04-23T19:09:08.279Z,35.00
2023-04-23T19:14:16.197Z,35.11
2023-04-23T19:19:24.790Z,35.25
2023-04-23T19:24:33.269Z,35.37
2023-04-23T19:29:41.432Z,35.61
2023-04-23T19:34:48.956Z,35.62
2023-04-23T19:39:56.483Z,35.70
2023-04-23T19:45:04.294Z,35.86
2023-04-23T19:50:14.252Z,35.93
2023-04-23T19:55:27.711Z,36.16
2023-04-23T20:00:37.966Z,36.40
2023-04-23T20:05:46.583Z,36.30
2023-04-23T20:10:54.102Z,36.75
2023-04-23T20:16:01.631Z,36.72
2023-04-23T20:21:09.669Z,36.87
2023-04-23T20:26:17.169Z,37.00
2023-04-23T20:31:24.840Z,37.05
2023-04-23T20:36:33.808Z,37.32
2023-04-23T20:41:41.802Z,37.57
2023-04-23T20:46:49.867Z,37.53
2023-04-23T20:51:57.285Z,37.88
2023-04-23T20:57:05.094Z,38.00
2023-04-23T21:02:15.718Z,37.96
2023-04-23T21:07:23.601Z,38.31
2023-04-23T21:12:31.666Z,38.18
2023-04-23T21:17:39.032Z,38.48
2023-04-23T21:22:46.681Z,38.51
2023-04-23T21:27:54.743Z,38.61
2023-04-23T21:33:02.622Z,38.49
2023-04-23T21:38:10.434Z,38.58
2023-04-23T21:43:18.276Z,38.96
2023-04-23T21:48:25.691Z,39.15
2023-04-23T21:53:33.000Z,39.57
2023-04-23T21:58:40.584Z,40.05
2023-04-23T22:03:48.432Z,40.28
2023-04-23T22:08:56.609Z,40.41
2023-04-23T22:14:04.387Z,40.30
2023-04-23T22:19:12.544Z,40.57
2023-04-23T22:24:20.511Z,41.12
2023-04-23T22:29:28.080Z,41.44
2023-04-23T22:34:35.523Z,41.80
2023-04-23T22:39:43.265Z,42.07
2023-04-23T22:44:51.210Z,42.55
2023-04-23T22:49:59.323Z,42.98
2023-04-23T22:55:07.968Z,43.23
2023-04-23T23:00:17.568Z,43.61
2023-04-23T23:05:25.204Z,43.58
2023-04-23T23:10:32.924Z,44.07
2023-04-23T23:15:40.464Z,44.07
2023-04-23T23:20:48.078Z,44.25
2023-04-23T23:25:56.726Z,44.63
2023-04-23T23:31:05.749Z,45.18
2023-04-23T23:36:13.465Z,45.19
2023-04-23T23:41:21.679Z,45.58
2023-04-23T23:46:29.456Z,45.86
2023-04-23T23:51:36.922Z,46.14
2023-04-23T23:56:44.630Z,46.46
